createdAt,value
2022-10-17T00:02:12.105Z,10.10
2022-10-17T00:04:38.690Z,13.60
2022-10-17T00:07:05.212Z,14.55
2022-10-17T00:09:31.714Z,12.88
2022-10-17T00:11:58.289Z,8.23
2022-10-17T00:14:24.788Z,9.02
2022-10-17T00:16:51.391Z,13.18
2022-10-17T00:19:17.899Z,12.32
2022-10-17T00:21:44.381Z,11.55
2022-10-17T00:24:10.917Z,9.48
2022-10-17T00:26:37.441Z,6.75
2022-10-17T00:29:04.121Z,11.95
2022-10-17T00:31:30.755Z,11.75
2022-10-17T00:33:57.320Z,13.07
2022-10-17T00:36:25.986Z,14.88
2022-10-17T00:38:56.450Z,12.00
2022-10-17T00:41:26.597Z,8.98
2022-10-17T00:44:13.192Z,9.50
2022-10-17T00:46:39.750Z,9.82
2022-10-17T00:49:10.459Z,10.43
2022-10-17T00:51:38.801Z,8.77
2022-10-17T00:54:06.345Z,8.20
2022-10-17T00:56:33.016Z,11.65
2022-10-17T00:58:59.833Z,11.93
2022-10-17T01:01:26.420Z,11.25
2022-10-17T01:03:52.999Z,12.65
2022-10-17T01:06:19.600Z,11.60
2022-10-17T01:08:46.378Z,14.43
2022-10-17T01:11:33.312Z,9.13
2022-10-17T01:14:25.153Z,8.73
2022-10-17T01:16:55.722Z,11.40
2022-10-17T01:19:22.174Z,9.50
2022-10-17T01:22:03.850Z,9.65
2022-10-17T01:25:02.947Z,16.58
2022-10-17T01:27:42.158Z,13.27
2022-10-17T01:30:44.270Z,10.85
2022-10-17T01:33:14.498Z,14.70
2022-10-17T01:35:51.254Z,11.27
2022-10-17T01:38:21.984Z,14.32
2022-10-17T01:40:52.171Z,18.90
2022-10-17T01:43:39.091Z,14.15
2022-10-17T01:46:39.046Z,13.25
2022-10-17T01:49:08.019Z,13.32
2022-10-17T01:51:51.522Z,13.98
2022-10-17T01:54:27.964Z,15.10
2022-10-17T01:57:00.268Z,16.55
2022-10-17T01:59:30.391Z,14.65
2022-10-17T02:01:57.877Z,15.48
2022-10-17T02:04:25.342Z,12.38
2022-10-17T02:06:52.021Z,13.27
2022-10-17T02:09:23.826Z,12.93
2022-10-17T02:11:57.138Z,15.25
2022-10-17T02:14:48.914Z,12.95
2022-10-17T02:17:26.693Z,13.73
2022-10-17T02:20:01.370Z,14.18
2022-10-17T02:22:46.345Z,20.48
2022-10-17T02:25:31.730Z,17.67
2022-10-17T02:28:06.343Z,13.90
2022-10-17T02:30:46.881Z,13.32
2022-10-17T02:33:23.556Z,11.98
2022-10-17T02:35:53.954Z,14.52
2022-10-17T02:38:21.653Z,14.52
2022-10-17T02:40:50.614Z,13.93
2022-10-17T02:43:17.506Z,14.02
2022-10-17T02:45:44.073Z,23.08
2022-10-17T02:48:19.913Z,17.40
2022-10-17T02:51:02.242Z,15.80
2022-10-17T02:53:35.315Z,14.73
2022-10-17T02:56:06.303Z,14.63
2022-10-17T02:58:34.073Z,17.40
2022-10-17T03:01:01.823Z,14.48
2022-10-17T03:03:30.652Z,18.92
2022-10-17T03:06:01.158Z,18.52
2022-10-17T03:08:27.901Z,15.38
2022-10-17T03:10:55.683Z,20.92
2022-10-17T03:13:22.724Z,14.80
2022-10-17T03:15:49.835Z,17.90
2022-10-17T03:18:16.421Z,18.08
2022-10-17T03:20:44.061Z,15.45
2022-10-17T03:23:10.616Z,19.05
2022-10-17T03:25:37.234Z,17.65
2022-10-17T03:28:05.435Z,18.52
2022-10-17T03:30:32.969Z,17.13
2022-10-17T03:33:00.314Z,17.15
2022-10-17T03:35:27.270Z,17.08
2022-10-17T03:37:55.606Z,17.73
2022-10-17T03:40:23.349Z,19.52
2022-10-17T03:42:49.948Z,19.73
2022-10-17T03:45:16.459Z,16.08
2022-10-17T03:47:43.886Z,16.80
2022-10-17T03:50:10.453Z,16.73
2022-10-17T03:52:38.636Z,18.58
2022-10-17T03:55:05.578Z,15.70
2022-10-17T03:57:34.834Z,19.08
2022-10-17T04:00:02.034Z,16.00
2022-10-17T04:02:29.711Z,19.65
2022-10-17T04:04:57.508Z,20.08
2022-10-17T04:07:24.067Z,24.25
2022-10-17T04:09:50.630Z,20.77
2022-10-17T04:12:19.563Z,20.70
2022-10-17T04:14:46.533Z,19.73
2022-10-17T04:17:14.357Z,21.17
2022-10-17T04:19:40.878Z,23.08
2022-10-17T04:22:08.433Z,21.98
2022-10-17T04:24:37.169Z,21.98
2022-10-17T04:27:09.670Z,20.52
2022-10-17T04:29:40.364Z,24.27
2022-10-17T04:32:20.383Z,19.83
2022-10-17T04:34:50.854Z,19.95
2022-10-17T04:37:19.361Z,22.30
2022-10-17T04:39:47.622Z,24.13
2022-10-17T04:42:14.220Z,27.23
2022-10-17T04:44:41.194Z,27.83
2022-10-17T04:47:08.525Z,26.10
2022-10-17T04:49:35.146Z,21.73
2022-10-17T04:52:09.826Z,26.95
2022-10-17T04:54:42.346Z,23.92
2022-10-17T04:57:10.331Z,23.27
2022-10-17T04:59:38.563Z,24.98
2022-10-17T05:02:25.354Z,26.88
2022-10-17T05:04:52.169Z,26.85
2022-10-17T05:07:20.239Z,30.70
2022-10-17T05:09:46.732Z,27.23
2022-10-17T05:12:13.250Z,20.77
2022-10-17T05:14:43.345Z,23.50
2022-10-17T05:17:09.912Z,23.92
2022-10-17T05:19:37.232Z,27.85
2022-10-17T05:22:04.694Z,32.78
2022-10-17T05:24:31.290Z,28.40
2022-10-17T05:26:58.048Z,35.03
2022-10-17T05:29:24.645Z,27.90
2022-10-17T05:31:57.816Z,28.25
2022-10-17T05:34:25.057Z,25.35
2022-10-17T05:36:51.817Z,25.73
2022-10-17T05:39:21.344Z,27.98
2022-10-17T05:41:51.216Z,23.38
2022-10-17T05:44:18.075Z,28.60
2022-10-17T05:46:50.364Z,26.85
2022-10-17T05:49:32.177Z,26.60
2022-10-17T05:52:00.578Z,27.35
2022-10-17T05:54:27.965Z,29.75
2022-10-17T05:56:55.911Z,29.75
2022-10-17T05:59:26.841Z,36.88
2022-10-17T06:02:09.927Z,23.13
2022-10-17T06:04:37.880Z,24.70
2022-10-17T06:07:05.083Z,24.45
2022-10-17T06:09:33.024Z,27.02
2022-10-17T06:11:59.537Z,28.10
2022-10-17T06:14:26.159Z,27.02
2022-10-17T06:16:56.965Z,24.38
2022-10-17T06:19:23.476Z,24.42
2022-10-17T06:21:50.045Z,22.73
2022-10-17T06:24:20.850Z,26.85
2022-10-17T06:26:49.771Z,22.15
2022-10-17T06:29:16.901Z,26.17
2022-10-17T06:31:47.504Z,27.20
2022-10-17T06:34:14.317Z,25.77
2022-10-17T06:36:41.046Z,33.30
2022-10-17T06:39:08.733Z,26.48
2022-10-17T06:41:44.492Z,28.35
2022-10-17T06:44:11.901Z,24.50
2022-10-17T06:46:57.657Z,30.27
2022-10-17T06:49:24.466Z,29.73
2022-10-17T06:51:57.121Z,23.60
2022-10-17T06:54:33.253Z,26.55
2022-10-17T06:57:18.481Z,25.58
2022-10-17T06:59:59.692Z,25.77
2022-10-17T07:02:33.979Z,25.15
2022-10-17T07:05:01.672Z,25.52
2022-10-17T07:07:31.638Z,25.48
2022-10-17T07:09:58.908Z,21.98
2022-10-17T07:12:25.630Z,21.42
2022-10-17T07:14:52.214Z,24.75
2022-10-17T07:17:19.396Z,23.25
2022-10-17T07:19:46.774Z,24.52
2022-10-17T07:22:13.637Z,25.17
2022-10-17T07:24:43.624Z,22.58
2022-10-17T07:27:22.686Z,22.63
2022-10-17T07:29:49.230Z,25.02
2022-10-17T07:32:27.602Z,22.10
2022-10-17T07:34:54.154Z,18.90
2022-10-17T07:37:20.673Z,22.17
2022-10-17T07:39:52.928Z,16.40
2022-10-17T07:42:19.537Z,18.70
2022-10-17T07:44:47.426Z,20.48
2022-10-17T07:47:14.082Z,18.67
2022-10-17T07:49:42.556Z,19.65
2022-10-17T07:52:13.159Z,17.17
2022-10-17T07:54:39.747Z,19.20
2022-10-17T07:57:06.786Z,17.65
2022-10-17T07:59:34.251Z,18.23
2022-10-17T08:02:00.893Z,16.23
2022-10-17T08:04:27.646Z,16.73
2022-10-17T08:07:05.425Z,18.98
2022-10-17T08:09:38.385Z,19.98
2022-10-17T08:12:05.125Z,13.18
2022-10-17T08:14:31.669Z,16.17
2022-10-17T08:16:58.218Z,15.88
2022-10-17T08:19:24.789Z,15.88
2022-10-17T08:21:52.312Z,17.25
2022-10-17T08:24:18.797Z,15.80
2022-10-17T08:26:48.280Z,16.40
2022-10-17T08:29:16.673Z,16.83
2022-10-17T08:31:47.424Z,15.73
2022-10-17T08:34:15.822Z,14.00
2022-10-17T08:36:42.354Z,17.25
2022-10-17T08:39:08.933Z,13.25
2022-10-17T08:42:26.005Z,16.25
2022-10-17T08:45:10.826Z,16.45
2022-10-17T08:47:41.377Z,12.88
2022-10-17T08:50:31.970Z,20.70
2022-10-17T08:53:05.132Z,15.88
2022-10-17T08:55:45.357Z,15.63
2022-10-17T08:58:14.582Z,14.50
2022-10-17T09:00:48.317Z,17.92
2022-10-17T09:03:43.599Z,14.05
2022-10-17T09:06:19.470Z,14.73
2022-10-17T09:09:03.046Z,15.65
2022-10-17T09:11:50.928Z,14.52
2022-10-17T09:14:40.798Z,19.30
2022-10-17T09:17:26.060Z,13.77
2022-10-17T09:20:01.982Z,11.93
2022-10-17T09:22:33.369Z,16.17
2022-10-17T09:25:03.799Z,15.30
2022-10-17T09:27:44.312Z,11.07
2022-10-17T09:30:47.488Z,13.77
2022-10-17T09:33:34.582Z,10.30
2022-10-17T09:36:05.554Z,12.93
2022-10-17T09:38:41.578Z,9.38
2022-10-17T09:41:42.788Z,14.90
2022-10-17T09:44:18.429Z,16.67
2022-10-17T09:47:14.178Z,20.70
2022-10-17T09:49:43.449Z,14.07
2022-10-17T09:52:20.054Z,17.30
2022-10-17T09:54:49.741Z,23.25
2022-10-17T09:57:17.943Z,11.75
2022-10-17T09:59:59.745Z,11.35
2022-10-17T10:02:28.455Z,11.88
2022-10-17T10:05:06.695Z,22.17
2022-10-17T10:07:37.444Z,17.90
2022-10-17T10:10:23.236Z,19.98
2022-10-17T10:13:03.866Z,13.95
2022-10-17T10:15:35.519Z,14.70
2022-10-17T10:18:02.365Z,18.38
2022-10-17T10:20:37.031Z,20.58
2022-10-17T10:23:10.979Z,15.70
2022-10-17T10:25:37.522Z,16.05
2022-10-17T10:28:10.648Z,17.20
2022-10-17T10:30:39.784Z,15.80
2022-10-17T10:33:10.547Z,24.02
2022-10-17T10:35:37.705Z,21.30
2022-10-17T10:38:10.164Z,22.58
2022-10-17T10:40:44.793Z,29.45
2022-10-17T10:43:21.878Z,27.85
2022-10-17T10:45:49.223Z,26.02
2022-10-17T10:48:21.764Z,23.58
2022-10-17T10:50:59.869Z,29.48
2022-10-17T10:53:34.906Z,28.50
2022-10-17T10:56:09.030Z,42.50
2022-10-17T10:59:02.479Z,26.95
2022-10-17T11:01:47.813Z,34.63
2022-10-17T11:04:26.736Z,23.13
2022-10-17T11:06:59.159Z,30.63
2022-10-17T11:09:46.517Z,27.98
2022-10-17T11:12:19.979Z,29.30
2022-10-17T11:14:55.109Z,25.55
2022-10-17T11:17:38.560Z,28.17
2022-10-17T11:20:23.757Z,26.70
2022-10-17T11:22:57.614Z,27.25
2022-10-17T11:25:37.090Z,30.33
2022-10-17T11:28:09.017Z,28.15
2022-10-17T11:33:22.227Z,27.63
2022-10-17T11:35:50.449Z,28.27
2022-10-17T11:38:27.238Z,30.95
2022-10-17T11:40:56.558Z,23.58
2022-10-17T11:43:33.778Z,25.17
2022-10-17T11:46:05.870Z,33.55
2022-10-17T11:48:39.469Z,24.08
2022-10-17T11:54:28.211Z,20.05
2022-10-17T11:57:27.285Z,26.98
2022-10-17T12:00:04.144Z,28.83
2022-10-17T12:02:57.962Z,22.10
2022-10-17T12:05:34.414Z,21.97
2022-10-17T12:08:14.113Z,21.45
2022-10-17T12:11:14.957Z,19.08
2022-10-17T12:13:46.457Z,17.98
2022-10-17T12:16:19.376Z,20.90
2022-10-17T12:18:47.595Z,20.60
2022-10-17T12:21:14.185Z,21.40
2022-10-17T12:23:41.172Z,16.80
2022-10-17T12:26:09.518Z,18.58
2022-10-17T12:28:47.137Z,21.95
2022-10-17T12:31:17.366Z,18.45
2022-10-17T12:33:52.643Z,19.30
2022-10-17T12:36:21.102Z,15.05
2022-10-17T12:39:02.473Z,15.38
2022-10-17T12:41:38.063Z,14.07
2022-10-17T12:44:13.971Z,14.43
2022-10-17T12:46:42.043Z,13.20
2022-10-17T12:49:40.616Z,13.65
2022-10-17T12:52:19.089Z,14.27
2022-10-17T12:55:00.295Z,13.90
2022-10-17T12:57:51.825Z,13.48
2022-10-17T13:00:37.840Z,12.90
2022-10-17T13:03:17.388Z,11.10
2022-10-17T13:05:49.757Z,14.52
2022-10-17T13:08:22.213Z,15.77
2022-10-17T13:10:52.399Z,10.55
2022-10-17T13:13:22.439Z,11.88
2022-10-17T13:15:51.043Z,14.70
2022-10-17T13:18:24.197Z,9.60
2022-10-17T13:20:58.722Z,12.65
2022-10-17T13:23:26.725Z,11.70
2022-10-17T13:26:22.510Z,10.90
2022-10-17T13:29:11.977Z,14.07
2022-10-17T13:31:40.597Z,15.50
2022-10-17T13:34:16.573Z,13.10
2022-10-17T13:36:48.537Z,11.77
2022-10-17T13:39:23.184Z,13.02
2022-10-17T13:41:58.872Z,12.63
2022-10-17T13:44:27.511Z,17.45
2022-10-17T13:46:54.453Z,13.18
2022-10-17T13:49:32.747Z,10.48
2022-10-17T13:52:00.840Z,9.70
2022-10-17T13:54:41.608Z,6.60
2022-10-17T13:57:21.491Z,6.78
2022-10-17T13:59:51.432Z,5.72
2022-10-17T14:02:21.735Z,5.85
2022-10-17T14:05:16.775Z,7.97
2022-10-17T14:08:16.902Z,6.25
2022-10-17T14:10:44.490Z,7.40
2022-10-17T14:13:28.165Z,8.02
2022-10-17T14:15:56.758Z,4.50
2022-10-17T14:18:34.808Z,8.48
2022-10-17T14:23:51.158Z,6.72
2022-10-17T14:26:22.968Z,5.40
2022-10-17T14:29:04.411Z,10.18
2022-10-17T14:31:37.142Z,8.63
2022-10-17T14:34:04.997Z,5.15
2022-10-17T14:36:34.519Z,2.97
2022-10-17T14:39:01.837Z,3.20
2022-10-17T14:41:47.834Z,3.50
2022-10-17T14:44:21.597Z,3.17
2022-10-17T14:46:54.057Z,3.38
2022-10-17T14:49:32.861Z,5.60
2022-10-17T14:52:18.535Z,5.13
2022-10-17T14:54:47.333Z,7.07
2022-10-17T14:57:26.004Z,4.22
2022-10-17T14:59:55.760Z,5.90
2022-10-17T15:02:24.348Z,4.00
2022-10-17T15:04:50.968Z,4.80
2022-10-17T15:07:18.037Z,7.05
2022-10-17T15:09:45.470Z,5.03
2022-10-17T15:12:17.644Z,5.47
2022-10-17T15:14:45.041Z,4.93
2022-10-17T15:17:18.549Z,3.97
2022-10-17T15:19:45.081Z,5.57
2022-10-17T15:22:11.593Z,5.47
2022-10-17T15:24:38.121Z,6.18
2022-10-17T15:27:10.876Z,7.40
2022-10-17T15:29:37.482Z,5.53
2022-10-17T15:32:04.006Z,5.50
2022-10-17T15:34:30.514Z,8.88
2022-10-17T15:36:57.258Z,8.32
2022-10-17T15:39:23.791Z,4.72
2022-10-17T15:41:50.399Z,6.30
2022-10-17T15:44:16.999Z,5.85
2022-10-17T15:46:43.624Z,6.70
2022-10-17T15:49:13.134Z,5.63
2022-10-17T15:51:40.326Z,5.40
2022-10-17T15:54:06.934Z,5.65
2022-10-17T15:56:37.355Z,5.05
2022-10-17T15:59:16.129Z,8.30
2022-10-17T16:01:42.714Z,6.47
2022-10-17T16:04:14.701Z,11.63
2022-10-17T16:06:42.556Z,8.77
2022-10-17T16:09:09.424Z,6.28
2022-10-17T16:11:39.592Z,11.77
2022-10-17T16:14:10.065Z,4.40
2022-10-17T16:16:36.546Z,7.13
2022-10-17T16:19:03.560Z,8.75
2022-10-17T16:21:33.291Z,9.13
2022-10-17T16:24:00.513Z,7.97
2022-10-17T16:26:27.629Z,7.10
2022-10-17T16:28:55.321Z,7.75
2022-10-17T16:31:23.316Z,11.05
2022-10-17T16:33:51.466Z,8.02
2022-10-17T16:36:17.996Z,11.55
2022-10-17T16:38:44.694Z,13.07
2022-10-17T16:41:21.328Z,8.05
2022-10-17T16:43:49.430Z,10.52
2022-10-17T16:46:16.261Z,7.60
2022-10-17T16:48:44.390Z,8.65
2022-10-17T16:51:12.026Z,8.13
2022-10-17T16:53:43.842Z,13.05
2022-10-17T16:56:12.654Z,9.57
2022-10-17T16:58:40.366Z,12.02
2022-10-17T17:01:10.167Z,12.43
2022-10-17T17:03:38.150Z,15.75
2022-10-17T17:06:06.642Z,15.07
2022-10-17T17:08:34.265Z,10.07
2022-10-17T17:11:00.832Z,11.20
2022-10-17T17:13:28.256Z,15.15
2022-10-17T17:16:06.349Z,17.30
2022-10-17T17:18:33.022Z,11.57
2022-10-17T17:21:00.981Z,17.65
2022-10-17T17:23:27.838Z,11.20
2022-10-17T17:26:09.618Z,11.50
2022-10-17T17:28:36.680Z,15.18
2022-10-17T17:31:06.812Z,20.17
2022-10-17T17:33:33.737Z,12.93
2022-10-17T17:36:01.642Z,11.55
2022-10-17T17:38:29.690Z,16.40
2022-10-17T17:40:56.430Z,10.80
2022-10-17T17:43:23.445Z,17.75
2022-10-17T17:45:50.045Z,13.80
2022-10-17T17:48:16.815Z,16.40
2022-10-17T17:50:44.186Z,14.93
2022-10-17T17:53:12.807Z,15.95
2022-10-17T17:55:40.123Z,15.45
2022-10-17T17:58:08.152Z,16.08
2022-10-17T18:00:35.763Z,15.88
2022-10-17T18:03:02.397Z,15.57
2022-10-17T18:05:29.020Z,15.35
2022-10-17T18:07:55.514Z,23.60
2022-10-17T18:10:22.314Z,21.23
2022-10-17T18:12:48.841Z,18.60
2022-10-17T18:15:15.703Z,19.25
2022-10-17T18:17:42.356Z,18.65
2022-10-17T18:20:09.369Z,14.57
2022-10-17T18:22:36.014Z,25.80
2022-10-17T18:25:03.038Z,22.60
2022-10-17T18:27:29.541Z,21.15
2022-10-17T18:29:56.284Z,22.48
2022-10-17T18:32:22.908Z,23.27
2022-10-17T18:34:49.420Z,25.77
2022-10-17T18:37:15.973Z,27.77
2022-10-17T18:39:42.458Z,30.00
2022-10-17T18:42:08.942Z,31.27
2022-10-17T18:44:35.451Z,30.05
2022-10-17T18:47:04.142Z,37.97
2022-10-17T18:49:31.226Z,26.10
2022-10-17T18:51:59.431Z,31.08
2022-10-17T18:54:25.918Z,42.47
2022-10-17T18:56:54.221Z,32.83
2022-10-17T18:59:21.080Z,39.15
2022-10-17T19:01:48.057Z,31.63
2022-10-17T19:04:14.719Z,35.88
2022-10-17T19:06:41.828Z,37.22
2022-10-17T19:09:10.933Z,40.88
2022-10-17T19:11:38.405Z,39.53
2022-10-17T19:14:12.590Z,35.17
2022-10-17T19:16:47.718Z,36.38
2022-10-17T19:19:25.082Z,38.70
2022-10-17T19:21:52.003Z,37.30
2022-10-17T19:24:24.920Z,38.95
2022-10-17T19:26:53.661Z,50.55
2022-10-17T19:29:21.584Z,48.53
2022-10-17T19:31:48.494Z,59.78
2022-10-17T19:34:15.886Z,36.60
2022-10-17T19:36:42.661Z,34.80
2022-10-17T19:39:15.805Z,40.58
2022-10-17T19:41:43.569Z,47.03
2022-10-17T19:44:10.505Z,54.88
2022-10-17T19:46:37.084Z,37.55
2022-10-17T19:49:04.163Z,31.13
2022-10-17T19:51:31.062Z,91.00
2022-10-17T19:54:01.976Z,43.60
2022-10-17T19:56:30.906Z,38.00
2022-10-17T19:58:58.448Z,35.03
2022-10-17T20:01:27.812Z,46.85
2022-10-17T20:03:54.873Z,38.92
2022-10-17T20:06:22.082Z,38.47
2022-10-17T20:08:48.877Z,77.93
2022-10-17T20:11:21.337Z,124.50
2022-10-17T20:13:48.339Z,67.97
2022-10-17T20:16:26.221Z,58.88
2022-10-17T20:18:57.005Z,287.33
2022-10-17T20:21:27.229Z,228.20
2022-10-17T20:23:54.346Z,209.15
2022-10-17T20:26:36.891Z,118.15
2022-10-17T20:29:08.649Z,79.72
2022-10-17T20:31:35.460Z,59.90
2022-10-17T20:34:01.998Z,34.92
2022-10-17T20:36:28.675Z,44.47
2022-10-17T20:38:56.769Z,43.85
2022-10-17T20:41:23.675Z,32.10
2022-10-17T20:43:51.647Z,38.50
2022-10-17T20:46:35.201Z,96.63
2022-10-17T20:49:03.345Z,94.07
2022-10-17T20:51:29.885Z,86.30
2022-10-17T20:56:31.196Z,49.70
2022-10-17T20:59:00.551Z,64.38
2022-10-17T21:01:28.262Z,53.95
2022-10-17T21:03:55.140Z,66.25
2022-10-17T21:06:22.993Z,180.90
2022-10-17T21:08:49.790Z,53.28
2022-10-17T21:11:21.543Z,88.45
2022-10-17T21:13:53.345Z,49.70
2022-10-17T21:16:20.165Z,67.55
2022-10-17T21:18:46.665Z,47.97
2022-10-17T21:21:20.412Z,117.28
2022-10-17T21:26:14.250Z,37.28
2022-10-17T21:28:41.303Z,28.27
2022-10-17T21:31:10.145Z,97.60
2022-10-17T21:33:37.013Z,61.60
2022-10-17T21:36:04.077Z,61.30
2022-10-17T21:38:30.686Z,57.92
2022-10-17T21:40:57.213Z,53.30
2022-10-17T21:43:23.736Z,58.08
2022-10-17T21:45:50.217Z,103.10
2022-10-17T21:48:16.705Z,66.85
2022-10-17T21:50:43.287Z,64.82
2022-10-17T21:53:09.790Z,54.70
2022-10-17T21:55:37.500Z,53.65
2022-10-17T21:58:04.536Z,49.45
2022-10-17T22:00:31.078Z,68.45
2022-10-17T22:02:57.665Z,77.15
2022-10-17T22:05:24.225Z,53.35
2022-10-17T22:07:50.723Z,53.60
2022-10-17T22:10:17.241Z,96.47
2022-10-17T22:12:43.726Z,78.88
2022-10-17T22:15:10.310Z,87.63
2022-10-17T22:17:36.825Z,77.70
2022-10-17T22:20:03.480Z,49.63
2022-10-17T22:22:30.471Z,51.38
2022-10-17T22:24:56.991Z,67.07
2022-10-17T22:27:23.472Z,58.50
2022-10-17T22:29:49.980Z,89.57
2022-10-17T22:32:20.059Z,59.53
2022-10-17T22:34:48.978Z,39.55
2022-10-17T22:37:15.501Z,60.53
2022-10-17T22:39:42.202Z,75.43
2022-10-17T22:42:08.832Z,63.15
2022-10-17T22:44:35.520Z,49.60
2022-10-17T22:47:02.004Z,61.80
2022-10-17T22:49:28.505Z,42.30
2022-10-17T22:51:55.000Z,37.58
2022-10-17T22:54:21.492Z,46.40
2022-10-17T22:56:47.987Z,44.47
2022-10-17T22:59:15.270Z,74.95
2022-10-17T23:01:41.835Z,46.38
2022-10-17T23:04:08.393Z,47.42
2022-10-17T23:06:34.933Z,68.90
2022-10-17T23:09:01.530Z,72.35
2022-10-17T23:11:28.068Z,49.00
2022-10-17T23:13:54.553Z,48.55
2022-10-17T23:16:21.069Z,40.15
2022-10-17T23:18:47.556Z,103.45
2022-10-17T23:21:14.126Z,50.97
2022-10-17T23:23:40.660Z,104.80
2022-10-17T23:26:10.195Z,131.00
2022-10-17T23:28:37.046Z,33.75
2022-10-17T23:31:18.829Z,28.83
2022-10-17T23:33:46.652Z,28.38
2022-10-17T23:36:14.911Z,35.75
2022-10-17T23:38:42.599Z,30.98
2022-10-17T23:41:09.426Z,31.67
2022-10-17T23:43:36.378Z,22.10
2022-10-17T23:46:03.593Z,28.55
2022-10-17T23:48:30.241Z,31.15
2022-10-17T23:50:56.890Z,27.00
2022-10-17T23:53:24.180Z,26.40
2022-10-17T23:55:50.838Z,27.00
2022-10-17T23:58:17.437Z,33.40
